Lake Edwards, Minnesota
Current Conditions -  °F | °C
As of 10:53 PM on Sunday 21 Dec 2014 (Local Time) from KBRD Reporting Station
Haze Haze  
Wind Chill: 26°   Ceiling: 300
Heat Index: 34°   Visibility: 4mi
Dew Point: 34°   Wind: 10mph
Humidity: 100%   Direction: 150°SSE
Pressure: 29.66"   Gusts: NA
Location:  46.5121°N, 94.2802°W
Report Text: KBRD 220453Z AUTO 15009KT 4SM BR OVC003 01/01 A2966 RMK AO2 RAE17B36E50 SLP057 P0000 T00110011
Loading
Personal Weather Stations






























Interactive Weather Map New forecast layout! Learn more

10-Day Weather Forecast

Advertisements
Track Severe Weather on mobile